Time;durP1;ratioP1;P1;durP2;ratioP2;P2;SDS_P1;SDS_P2;PMS_P1;PMS_P2;Temp;Humidity;BMP_temperature;BMP_pressure;BME280_temperature;BME280_humidity;BME280_pressure;Samples;Min_cycle;Max_cycle;Signal;HPM_P1;HPM_P2
2023/07/09 00:01:58;;;;;;;4.83;4.43;;;29.10;58.70;;;;;;5041362;28;20516;-65
2023/07/09 00:04:28;;;;;;;7.30;4.90;;;29.00;58.70;;;;;;5060272;28;20453;-65
2023/07/09 00:06:58;;;;;;;8.57;5.33;;;29.00;58.70;;;;;;5054203;28;20459;-69
2023/07/09 00:09:28;;;;;;;6.10;5.07;;;29.00;58.70;;;;;;5040267;28;20528;-70
2023/07/09 00:11:56;;;;;;;6.50;5.40;;;29.00;58.80;;;;;;5057716;28;20461;-65
2023/07/09 00:14:27;;;;;;;5.43;4.93;;;29.00;58.80;;;;;;5044226;28;20490;-65
2023/07/09 00:16:55;;;;;;;5.70;5.10;;;29.00;58.80;;;;;;5068502;28;20441;-65
2023/07/09 00:19:24;;;;;;;5.20;4.73;;;29.00;58.90;;;;;;5052292;28;20490;-65
2023/07/09 00:21:54;;;;;;;5.47;4.93;;;28.90;58.90;;;;;;5051669;28;20471;-66
2023/07/09 00:24:22;;;;;;;4.77;4.37;;;28.90;58.90;;;;;;5043363;28;20469;-66
2023/07/09 00:26:52;;;;;;;5.23;4.80;;;28.90;58.90;;;;;;5052008;28;20936;-71
2023/07/09 00:29:20;;;;;;;5.00;4.60;;;28.90;59.00;;;;;;5045612;28;20521;-65
2023/07/09 00:31:49;;;;;;;5.90;5.40;;;28.90;59.00;;;;;;5058860;28;20811;-65
2023/07/09 00:34:21;;;;;;;5.77;5.37;;;28.90;59.00;;;;;;5072864;28;20476;-67
2023/07/09 00:36:50;;;;;;;6.03;5.53;;;28.90;59.00;;;;;;5032394;28;20866;-73
2023/07/09 00:39:21;;;;;;;5.70;5.30;;;28.90;59.10;;;;;;5027373;28;20460;-66
2023/07/09 00:41:52;;;;;;;5.63;5.13;;;28.90;59.10;;;;;;5035025;28;20477;-68
2023/07/09 00:44:33;;;;;;;5.87;5.37;;;28.80;59.20;;;;;;5047966;28;20523;-68
2023/07/09 00:47:23;;;;;;;6.77;6.10;;;28.80;59.30;;;;;;5034497;28;20490;-65
2023/07/09 00:50:17;;;;;;;5.93;5.37;;;28.80;59.30;;;;;;5038084;28;20983;-66
2023/07/09 00:52:53;;;;;;;6.53;5.83;;;28.80;59.30;;;;;;5039745;28;20864;-64
2023/07/09 00:55:25;;;;;;;6.23;5.77;;;28.80;59.40;;;;;;5041337;28;21020;-66
2023/07/09 00:58:02;;;;;;;6.43;5.93;;;28.80;59.50;;;;;;5032430;28;20433;-65
2023/07/09 01:00:46;;;;;;;6.87;6.27;;;28.80;59.50;;;;;;5016057;28;20477;-69
2023/07/09 01:03:22;;;;;;;7.23;6.63;;;28.80;59.50;;;;;;5048187;28;20486;-64
2023/07/09 01:05:55;;;;;;;6.30;5.80;;;28.70;59.40;;;;;;5038961;28;20454;-67
2023/07/09 01:08:23;;;;;;;6.23;5.63;;;28.70;59.30;;;;;;5035265;28;20482;-70
2023/07/09 01:10:51;;;;;;;6.10;5.47;;;28.70;59.40;;;;;;5020711;28;20465;-67
2023/07/09 01:13:21;;;;;;;6.33;5.83;;;28.70;59.30;;;;;;5019607;28;20455;-64
2023/07/09 01:15:51;;;;;;;5.83;5.37;;;28.70;59.30;;;;;;5042403;28;20455;-66
2023/07/09 01:18:21;;;;;;;5.90;5.40;;;28.70;59.30;;;;;;5045214;28;20543;-65
2023/07/09 01:20:49;;;;;;;7.33;5.60;;;28.70;59.40;;;;;;5051869;28;20523;-65
2023/07/09 01:23:19;;;;;;;6.70;6.07;;;28.70;59.30;;;;;;5035813;28;20566;-65
2023/07/09 01:25:54;;;;;;;8.17;5.40;;;28.60;59.30;;;;;;5032561;28;20451;-66
2023/07/09 01:28:22;;;;;;;5.63;5.23;;;28.60;59.30;;;;;;5031650;28;20505;-66
2023/07/09 01:30:53;;;;;;;6.60;5.40;;;28.60;59.30;;;;;;5029103;28;20460;-67
2023/07/09 01:33:23;;;;;;;7.10;5.10;;;28.60;59.30;;;;;;5039389;28;20550;-65
2023/07/09 01:35:53;;;;;;;8.97;5.23;;;28.60;59.30;;;;;;5048059;28;20467;-67
2023/07/09 01:38:23;;;;;;;5.70;5.20;;;28.60;59.30;;;;;;5045152;28;20485;-65
2023/07/09 01:40:51;;;;;;;5.37;4.87;;;28.60;59.30;;;;;;5052073;28;20438;-65
2023/07/09 01:43:21;;;;;;;5.50;4.97;;;28.60;59.30;;;;;;5026935;28;21035;-66
2023/07/09 01:45:50;;;;;;;5.57;5.03;;;28.60;59.40;;;;;;5047265;28;20555;-69
2023/07/09 01:48:19;;;;;;;8.13;5.80;;;28.50;59.40;;;;;;5041999;28;20480;-65
2023/07/09 01:50:49;;;;;;;5.20;4.70;;;28.50;59.40;;;;;;5027956;28;20473;-65
2023/07/09 01:53:20;;;;;;;6.13;5.63;;;28.50;59.50;;;;;;5042982;28;20451;-65
2023/07/09 01:55:54;;;;;;;5.50;5.00;;;28.50;59.50;;;;;;5034007;28;20506;-69
2023/07/09 01:58:24;;;;;;;5.77;5.27;;;28.50;59.50;;;;;;5033004;28;20879;-65
2023/07/09 02:00:53;;;;;;;6.50;5.90;;;28.50;59.40;;;;;;5049187;28;20455;-64
2023/07/09 02:03:22;;;;;;;5.00;4.60;;;28.50;59.50;;;;;;5048029;28;20576;-66
2023/07/09 02:05:52;;;;;;;6.23;5.60;;;28.50;59.50;;;;;;5024477;28;21257;-65
2023/07/09 02:08:22;;;;;;;6.20;5.63;;;28.50;59.60;;;;;;5021305;28;20481;-65
2023/07/09 02:10:52;;;;;;;6.33;5.73;;;28.50;59.60;;;;;;5045151;28;20501;-65
2023/07/09 02:13:20;;;;;;;6.93;6.20;;;28.40;59.60;;;;;;5055332;28;20510;-64
2023/07/09 02:15:48;;;;;;;7.03;5.37;;;28.40;59.70;;;;;;5027440;28;20515;-65
2023/07/09 02:18:16;;;;;;;4.93;4.53;;;28.40;59.90;;;;;;5046746;28;20465;-69
2023/07/09 02:20:47;;;;;;;6.10;5.60;;;28.40;59.80;;;;;;5051470;28;20477;-64
2023/07/09 02:23:15;;;;;;;6.00;5.40;;;28.40;59.70;;;;;;5030647;28;20465;-65
2023/07/09 02:25:43;;;;;;;7.00;5.80;;;28.40;59.70;;;;;;5031202;28;20795;-65
2023/07/09 02:28:12;;;;;;;5.87;5.23;;;28.40;59.50;;;;;;5050385;28;20440;-66
2023/07/09 02:30:41;;;;;;;6.10;5.50;;;28.40;59.40;;;;;;5051283;28;20432;-71
2023/07/09 02:33:09;;;;;;;5.20;4.70;;;28.40;59.40;;;;;;5049289;28;20462;-65
2023/07/09 02:35:37;;;;;;;5.23;4.83;;;28.30;59.50;;;;;;5044814;28;20867;-65
2023/07/09 02:38:05;;;;;;;9.20;6.13;;;28.30;59.40;;;;;;5049632;28;20567;-64
2023/07/09 02:40:34;;;;;;;6.40;4.67;;;28.30;59.20;;;;;;5046335;28;20526;-65
2023/07/09 02:43:02;;;;;;;6.50;4.87;;;28.30;59.20;;;;;;5051354;28;20453;-67
2023/07/09 02:45:32;;;;;;;5.70;4.70;;;28.30;59.30;;;;;;5028548;28;20473;-69
2023/07/09 02:48:00;;;;;;;8.67;5.30;;;28.20;59.20;;;;;;5016079;28;20461;-64
2023/07/09 02:50:35;;;;;;;8.30;6.13;;;28.20;59.20;;;;;;5026814;28;20482;-64
2023/07/09 02:53:03;;;;;;;6.47;5.87;;;28.20;59.20;;;;;;5033033;28;20456;-65
2023/07/09 02:55:31;;;;;;;6.83;5.50;;;28.20;59.10;;;;;;5049811;28;20469;-65
2023/07/09 02:57:59;;;;;;;6.90;5.27;;;28.20;59.10;;;;;;5026724;28;21038;-64
2023/07/09 03:00:28;;;;;;;8.30;5.40;;;28.20;59.20;;;;;;5039068;28;20527;-65
2023/07/09 03:02:57;;;;;;;7.07;5.87;;;28.20;59.20;;;;;;5061062;28;20454;-65
2023/07/09 03:05:26;;;;;;;6.27;4.83;;;28.20;59.30;;;;;;5029572;28;20471;-68
2023/07/09 03:07:54;;;;;;;5.70;5.20;;;28.10;59.20;;;;;;5030798;28;20434;-65
2023/07/09 03:10:22;;;;;;;7.90;4.73;;;28.10;59.30;;;;;;5013624;28;20489;-65
2023/07/09 03:12:50;;;;;;;5.67;5.17;;;28.10;59.50;;;;;;5049263;28;20432;-64
2023/07/09 03:15:18;;;;;;;5.83;5.23;;;28.10;59.50;;;;;;5045868;28;20460;-64
2023/07/09 03:17:47;;;;;;;6.10;5.50;;;28.10;59.50;;;;;;5024776;28;20539;-67
2023/07/09 03:20:16;;;;;;;5.90;5.30;;;28.10;59.30;;;;;;5049784;28;20533;-65
2023/07/09 03:22:44;;;;;;;7.37;5.27;;;28.10;59.30;;;;;;5049501;28;20452;-65
2023/07/09 03:25:13;;;;;;;6.33;5.83;;;28.10;59.30;;;;;;5044627;28;20521;-65
2023/07/09 03:27:41;;;;;;;8.77;6.17;;;28.10;59.30;;;;;;5048239;28;20463;-67
2023/07/09 03:30:10;;;;;;;7.80;5.70;;;28.00;59.40;;;;;;5036394;28;20529;-66
2023/07/09 03:32:38;;;;;;;5.87;5.33;;;28.00;59.40;;;;;;5050700;28;20964;-68
2023/07/09 03:35:08;;;;;;;6.47;5.33;;;28.00;59.40;;;;;;5052515;28;20459;-70
2023/07/09 03:37:37;;;;;;;5.90;5.13;;;28.00;59.50;;;;;;5035760;28;20603;-65
2023/07/09 03:40:07;;;;;;;5.87;5.27;;;28.00;59.50;;;;;;5054479;28;20444;-65
2023/07/09 03:42:35;;;;;;;5.20;4.80;;;28.00;59.50;;;;;;5049583;28;20488;-64
2023/07/09 03:45:04;;;;;;;7.43;4.90;;;28.00;59.60;;;;;;5037326;28;20465;-65
2023/07/09 03:47:32;;;;;;;5.37;4.90;;;28.00;59.50;;;;;;5033755;28;20470;-65
2023/07/09 03:50:00;;;;;;;5.87;5.37;;;27.90;59.40;;;;;;5034613;28;20502;-64
2023/07/09 03:52:28;;;;;;;8.43;5.10;;;27.90;59.40;;;;;;5041496;28;20451;-70
2023/07/09 03:55:00;;;;;;;5.07;4.67;;;27.90;59.40;;;;;;5052047;28;20447;-68
2023/07/09 03:57:28;;;;;;;6.33;5.10;;;27.90;59.40;;;;;;5046649;28;20484;-65
2023/07/09 03:59:57;;;;;;;5.23;4.73;;;27.90;59.40;;;;;;5054007;28;20464;-67
2023/07/09 04:02:25;;;;;;;5.70;5.10;;;27.90;59.50;;;;;;5047886;28;20460;-64
2023/07/09 04:04:53;;;;;;;6.37;5.77;;;27.90;59.50;;;;;;5052021;28;20967;-65
2023/07/09 04:07:21;;;;;;;5.80;4.57;;;27.90;59.50;;;;;;5053876;28;20441;-64
2023/07/09 04:09:50;;;;;;;5.97;5.37;;;27.90;59.60;;;;;;5046926;28;20475;-64
2023/07/09 04:12:19;;;;;;;5.87;5.37;;;27.90;59.50;;;;;;5043466;28;20859;-65
2023/07/09 04:14:47;;;;;;;5.23;4.73;;;27.90;59.40;;;;;;5037843;28;20468;-71
2023/07/09 04:17:15;;;;;;;5.13;4.73;;;27.80;59.30;;;;;;5046952;28;20494;-65
2023/07/09 04:19:44;;;;;;;5.57;5.10;;;27.80;59.40;;;;;;5044006;28;20980;-66
2023/07/09 04:22:12;;;;;;;5.53;4.50;;;27.80;59.40;;;;;;5052743;28;20504;-68
2023/07/09 04:24:40;;;;;;;5.60;5.10;;;27.80;59.40;;;;;;5056009;28;20459;-64
2023/07/09 04:27:09;;;;;;;5.60;5.10;;;27.80;59.40;;;;;;5064905;28;20452;-64
2023/07/09 04:29:39;;;;;;;5.40;4.87;;;27.80;59.50;;;;;;5073249;28;20564;-65
2023/07/09 04:32:09;;;;;;;8.63;4.83;;;27.80;59.50;;;;;;5055174;28;20824;-66
2023/07/09 04:34:38;;;;;;;7.10;5.50;;;27.80;59.50;;;;;;5046803;28;20465;-66
2023/07/09 04:37:08;;;;;;;6.13;5.53;;;27.80;59.50;;;;;;5052424;28;20529;-68
2023/07/09 04:39:38;;;;;;;5.93;5.33;;;27.80;59.70;;;;;;5052468;28;20423;-68
2023/07/09 04:42:11;;;;;;;4.87;4.37;;;27.80;59.60;;;;;;5052516;28;20444;-69
2023/07/09 04:44:41;;;;;;;5.63;5.00;;;27.80;59.70;;;;;;5052949;28;21181;-67
2023/07/09 04:47:09;;;;;;;7.83;4.87;;;27.80;59.60;;;;;;5050947;28;20436;-64
2023/07/09 04:49:37;;;;;;;5.63;5.07;;;27.80;59.60;;;;;;5046519;28;20514;-65
2023/07/09 04:52:06;;;;;;;9.10;5.40;;;27.80;59.70;;;;;;5037752;28;20453;-70
2023/07/09 04:54:35;;;;;;;6.33;4.73;;;27.80;59.80;;;;;;5046051;28;20521;-65
2023/07/09 04:57:03;;;;;;;6.37;5.10;;;27.80;59.80;;;;;;5053444;28;20500;-66
2023/07/09 04:59:32;;;;;;;6.57;5.50;;;27.80;59.90;;;;;;5048191;28;20455;-65
2023/07/09 05:02:02;;;;;;;7.27;6.67;;;27.80;60.00;;;;;;5045824;28;20488;-65
2023/07/09 05:04:30;;;;;;;7.80;5.17;;;27.80;60.10;;;;;;5046881;28;22233;-65
2023/07/09 05:06:58;;;;;;;5.70;5.20;;;27.80;60.20;;;;;;5044657;28;20460;-65
2023/07/09 05:09:26;;;;;;;8.77;5.50;;;27.90;60.20;;;;;;5044387;28;20558;-70
2023/07/09 05:11:55;;;;;;;7.60;5.07;;;27.90;60.20;;;;;;5042785;28;20515;-69
2023/07/09 05:14:23;;;;;;;5.60;5.10;;;27.90;60.20;;;;;;5042269;28;20465;-66
2023/07/09 05:16:51;;;;;;;5.47;4.73;;;27.90;60.30;;;;;;5046910;28;20509;-67
2023/07/09 05:19:21;;;;;;;6.53;4.93;;;27.90;60.30;;;;;;5050283;28;20468;-66
2023/07/09 05:21:49;;;;;;;8.63;5.00;;;27.90;60.60;;;;;;5041699;28;21528;-64
2023/07/09 05:24:17;;;;;;;7.20;5.03;;;27.90;60.60;;;;;;5055573;28;20503;-65
2023/07/09 05:26:45;;;;;;;8.50;5.07;;;27.90;60.60;;;;;;5059617;28;20452;-66
2023/07/09 05:29:13;;;;;;;7.03;4.93;;;27.90;60.80;;;;;;5060904;28;20795;-67
2023/07/09 05:31:42;;;;;;;13.47;4.97;;;27.90;60.80;;;;;;5044107;28;20550;-71
2023/07/09 05:34:10;;;;;;;5.30;4.80;;;27.90;61.00;;;;;;5047434;28;20446;-66
2023/07/09 05:36:40;;;;;;;4.77;4.30;;;27.90;61.00;;;;;;5030908;28;20790;-64
2023/07/09 05:39:08;;;;;;;4.83;4.43;;;27.90;60.90;;;;;;5040794;28;20510;-66
2023/07/09 05:41:37;;;;;;;4.40;4.00;;;27.90;60.70;;;;;;5031370;28;20876;-68
2023/07/09 05:44:05;;;;;;;6.07;5.00;;;27.90;60.70;;;;;;5049714;28;20446;-65
2023/07/09 05:46:37;;;;;;;6.17;5.10;;;27.90;60.70;;;;;;5042673;28;20523;-69
2023/07/09 05:49:05;;;;;;;5.13;4.73;;;27.90;60.70;;;;;;5045290;28;20604;-64
2023/07/09 05:51:34;;;;;;;5.13;4.63;;;27.90;60.70;;;;;;5033483;28;20534;-65
2023/07/09 05:54:04;;;;;;;5.50;5.00;;;27.90;60.70;;;;;;5040178;28;20477;-64
2023/07/09 05:56:32;;;;;;;7.30;5.27;;;27.90;60.70;;;;;;5037419;28;21419;-64
2023/07/09 05:59:00;;;;;;;5.80;5.30;;;27.90;60.70;;;;;;5053235;28;20510;-66
2023/07/09 06:01:28;;;;;;;5.93;5.43;;;28.00;60.90;;;;;;5066803;28;20855;-64
2023/07/09 06:03:56;;;;;;;6.77;5.40;;;27.90;60.70;;;;;;5047587;28;20515;-64
2023/07/09 06:06:25;;;;;;;7.03;5.10;;;27.90;60.70;;;;;;5034807;28;20455;-64
2023/07/09 06:08:54;;;;;;;6.23;4.87;;;27.90;60.70;;;;;;5050386;28;20433;-65
2023/07/09 06:11:24;;;;;;;4.90;4.57;;;27.90;60.70;;;;;;5051403;28;20480;-64
2023/07/09 06:13:52;;;;;;;5.30;4.90;;;27.90;60.70;;;;;;5051694;28;20445;-65
2023/07/09 06:16:21;;;;;;;5.20;4.43;;;27.90;60.70;;;;;;5039398;28;20557;-64
2023/07/09 06:18:49;;;;;;;5.17;4.67;;;27.90;60.80;;;;;;5030956;28;20775;-64
2023/07/09 06:21:17;;;;;;;6.07;4.97;;;27.90;60.70;;;;;;5042213;28;20522;-65
2023/07/09 06:23:46;;;;;;;5.00;4.60;;;27.90;60.70;;;;;;5034849;28;20860;-65
2023/07/09 06:26:14;;;;;;;5.60;4.67;;;27.90;60.70;;;;;;5031259;28;20450;-64
2023/07/09 06:28:44;;;;;;;4.30;4.00;;;27.90;60.80;;;;;;5030982;28;20527;-64
2023/07/09 06:31:12;;;;;;;5.00;4.60;;;27.90;60.80;;;;;;5033988;28;20469;-64
2023/07/09 06:33:40;;;;;;;5.50;5.00;;;27.90;60.90;;;;;;5020298;28;20822;-67
2023/07/09 06:36:09;;;;;;;5.00;4.60;;;27.90;60.90;;;;;;5045305;28;20519;-64
2023/07/09 06:38:38;;;;;;;5.23;4.77;;;27.90;61.00;;;;;;5046984;28;21024;-65
2023/07/09 06:41:06;;;;;;;4.93;4.63;;;27.90;61.10;;;;;;5051080;28;20488;-64
2023/07/09 06:43:38;;;;;;;6.20;4.87;;;27.90;61.10;;;;;;5048855;28;20423;-65
2023/07/09 06:46:11;;;;;;;4.10;3.80;;;27.90;61.20;;;;;;5032804;28;20470;-72
2023/07/09 06:48:39;;;;;;;5.20;4.80;;;27.90;61.30;;;;;;5045821;28;20458;-64
2023/07/09 06:51:08;;;;;;;4.80;4.30;;;27.90;61.30;;;;;;5032786;28;20875;-64
2023/07/09 06:53:36;;;;;;;4.37;3.97;;;27.90;61.40;;;;;;5046734;28;20467;-69
2023/07/09 06:56:04;;;;;;;4.27;3.97;;;27.90;61.40;;;;;;5045625;28;21024;-64
2023/07/09 06:58:34;;;;;;;5.33;4.83;;;27.90;61.40;;;;;;5050068;28;20459;-68
2023/07/09 07:01:04;;;;;;;4.53;4.20;;;27.90;61.50;;;;;;5049332;28;20433;-68
2023/07/09 07:03:34;;;;;;;5.87;4.80;;;27.90;61.50;;;;;;5037007;28;20443;-68
2023/07/09 07:06:03;;;;;;;5.90;5.30;;;27.90;61.30;;;;;;5050878;28;21001;-66
2023/07/09 07:08:32;;;;;;;5.43;4.87;;;27.90;61.30;;;;;;5043066;28;20493;-64
2023/07/09 07:11:02;;;;;;;5.20;4.80;;;27.90;61.40;;;;;;5048767;28;20462;-63
2023/07/09 07:13:31;;;;;;;4.73;4.33;;;27.90;61.40;;;;;;5033084;28;20466;-65
2023/07/09 07:16:00;;;;;;;4.87;4.47;;;27.90;61.30;;;;;;5040891;28;20442;-66
2023/07/09 07:18:28;;;;;;;5.17;4.77;;;27.90;61.30;;;;;;5044017;28;20505;-64
2023/07/09 07:20:58;;;;;;;5.67;4.90;;;27.90;61.30;;;;;;5048705;28;20478;-67
2023/07/09 07:23:26;;;;;;;4.80;4.43;;;27.90;61.40;;;;;;5052725;28;21368;-65
2023/07/09 07:25:55;;;;;;;4.33;4.03;;;27.90;61.40;;;;;;5045910;28;20458;-64
2023/07/09 07:28:23;;;;;;;5.73;5.23;;;27.90;61.30;;;;;;5040662;28;20454;-67
2023/07/09 07:31:02;;;;;;;5.23;4.43;;;27.90;61.30;;;;;;5042588;28;20447;-72
2023/07/09 07:33:30;;;;;;;5.90;4.93;;;28.00;61.20;;;;;;5050909;28;20496;-64
2023/07/09 07:35:59;;;;;;;4.97;4.63;;;28.00;61.10;;;;;;5041168;28;21037;-66
2023/07/09 07:38:48;;;;;;;5.80;5.40;;;28.10;60.90;;;;;;5037862;28;20492;-65
2023/07/09 07:41:16;;;;;;;5.10;4.60;;;28.10;60.80;;;;;;5046949;28;20461;-66
2023/07/09 07:43:44;;;;;;;5.80;4.50;;;28.10;60.80;;;;;;5047611;28;20812;-67
2023/07/09 07:46:12;;;;;;;4.90;4.50;;;28.10;60.70;;;;;;5041263;28;20463;-66
2023/07/09 07:48:40;;;;;;;5.77;5.27;;;28.10;60.70;;;;;;5050358;28;20488;-63
2023/07/09 07:51:10;;;;;;;5.03;4.20;;;28.20;60.70;;;;;;5052706;28;20489;-67
2023/07/09 07:53:38;;;;;;;4.77;4.47;;;28.20;60.70;;;;;;5047826;28;20455;-64
2023/07/09 07:56:07;;;;;;;5.67;4.60;;;28.20;60.70;;;;;;5041026;28;20489;-64
2023/07/09 07:58:35;;;;;;;6.00;4.60;;;28.20;60.80;;;;;;5039552;28;20458;-66
2023/07/09 08:01:03;;;;;;;4.67;4.27;;;28.20;60.70;;;;;;5045607;28;20580;-66
2023/07/09 08:03:32;;;;;;;6.70;5.33;;;28.20;60.80;;;;;;5050005;28;20470;-71
2023/07/09 08:06:03;;;;;;;5.07;4.10;;;28.20;60.70;;;;;;5050413;28;20457;-67
2023/07/09 08:08:33;;;;;;;8.03;3.97;;;28.20;60.70;;;;;;5044885;28;20843;-67
2023/07/09 08:11:04;;;;;;;5.20;4.80;;;28.20;60.70;;;;;;5029798;28;20475;-67
2023/07/09 08:13:34;;;;;;;5.47;4.97;;;28.20;60.70;;;;;;5053056;28;22016;-70
2023/07/09 08:16:03;;;;;;;5.67;4.87;;;28.10;60.70;;;;;;5050230;28;20435;-68
2023/07/09 08:18:32;;;;;;;4.80;4.40;;;28.10;60.70;;;;;;5031208;28;21172;-69
2023/07/09 08:21:00;;;;;;;5.30;4.73;;;28.10;60.70;;;;;;5054957;28;20453;-67
2023/07/09 08:23:28;;;;;;;4.50;4.10;;;28.10;60.80;;;;;;5052948;28;20449;-69
2023/07/09 08:26:00;;;;;;;4.87;4.47;;;28.10;60.80;;;;;;5047764;28;21012;-68
2023/07/09 08:28:29;;;;;;;4.37;3.97;;;28.10;60.80;;;;;;5051601;28;21024;-67
2023/07/09 08:30:58;;;;;;;5.03;4.63;;;28.10;60.80;;;;;;5050355;28;20461;-68
2023/07/09 08:33:26;;;;;;;4.87;4.10;;;28.10;60.90;;;;;;5049473;28;20492;-67
2023/07/09 08:35:55;;;;;;;5.47;4.27;;;28.10;60.90;;;;;;5049712;28;20473;-68
2023/07/09 08:38:24;;;;;;;4.70;4.30;;;28.00;60.90;;;;;;5053410;28;20532;-68
2023/07/09 08:40:57;;;;;;;4.63;4.23;;;28.00;60.90;;;;;;5052831;28;20467;-67
2023/07/09 08:43:36;;;;;;;4.43;4.13;;;28.00;60.90;;;;;;5041395;28;20516;-67
2023/07/09 08:46:10;;;;;;;7.30;5.20;;;28.00;60.90;;;;;;5049267;28;20957;-71
2023/07/09 08:48:43;;;;;;;5.40;4.20;;;28.00;60.90;;;;;;5046401;28;21002;-68
2023/07/09 08:51:16;;;;;;;4.70;4.37;;;28.10;60.90;;;;;;5023584;28;20532;-67
2023/07/09 08:53:49;;;;;;;4.73;4.33;;;28.10;61.10;;;;;;5046608;28;20480;-68
2023/07/09 08:56:19;;;;;;;4.93;4.53;;;28.10;61.10;;;;;;5046900;28;21008;-67
2023/07/09 08:58:50;;;;;;;4.70;4.30;;;28.20;61.20;;;;;;5036675;28;20491;-70
2023/07/09 09:01:21;;;;;;;5.50;5.10;;;28.20;61.20;;;;;;5025499;28;20516;-73
2023/07/09 09:03:51;;;;;;;5.63;4.60;;;28.20;61.20;;;;;;5042235;28;20466;-67
2023/07/09 09:06:23;;;;;;;4.77;4.43;;;28.20;61.20;;;;;;5042398;28;20484;-70
2023/07/09 09:09:05;;;;;;;7.13;4.70;;;28.20;61.20;;;;;;5043218;28;20448;-67
2023/07/09 09:11:44;;;;;;;5.10;4.60;;;28.20;61.20;;;;;;5042316;28;23826;-74
2023/07/09 09:14:28;;;;;;;4.60;4.20;;;28.20;61.20;;;;;;5042201;28;20575;-69
2023/07/09 09:16:58;;;;;;;6.30;4.47;;;28.20;61.20;;;;;;5038814;28;20459;-70
2023/07/09 09:19:30;;;;;;;5.07;4.67;;;28.30;61.20;;;;;;5037322;28;20527;-67
2023/07/09 09:22:04;;;;;;;5.20;4.80;;;28.30;61.20;;;;;;5033258;28;20511;-69
2023/07/09 09:24:37;;;;;;;4.40;4.10;;;28.30;61.20;;;;;;5032645;28;20558;-74
2023/07/09 09:27:05;;;;;;;4.87;4.10;;;28.30;61.30;;;;;;5042817;28;20507;-69
2023/07/09 09:29:35;;;;;;;4.97;4.47;;;28.30;61.20;;;;;;5032785;28;20470;-67
2023/07/09 09:32:19;;;;;;;4.77;4.33;;;28.30;61.30;;;;;;5040051;28;20518;-67
2023/07/09 09:34:47;;;;;;;6.10;4.60;;;28.30;61.20;;;;;;5048691;28;20517;-68
2023/07/09 09:37:26;;;;;;;5.27;4.30;;;28.30;61.20;;;;;;5046407;28;20626;-67
2023/07/09 09:39:55;;;;;;;4.63;4.33;;;28.30;61.20;;;;;;5050618;28;20463;-67
2023/07/09 09:42:43;;;;;;;4.60;4.30;;;28.30;61.20;;;;;;5047867;28;20456;-67
2023/07/09 09:45:17;;;;;;;4.83;4.20;;;28.30;61.00;;;;;;5052748;28;20454;-66
2023/07/09 09:47:46;;;;;;;5.40;4.90;;;28.30;60.80;;;;;;5042518;28;20462;-67
2023/07/09 09:50:16;;;;;;;4.60;4.10;;;28.40;60.70;;;;;;5050176;28;20933;-68
2023/07/09 09:52:45;;;;;;;4.83;4.43;;;28.40;60.70;;;;;;5042884;28;20564;-67
2023/07/09 09:55:19;;;;;;;5.73;5.23;;;28.40;60.60;;;;;;5046111;28;20511;-67
2023/07/09 09:57:51;;;;;;;3.90;3.60;;;28.40;60.60;;;;;;5048692;28;20465;-71
2023/07/09 10:00:24;;;;;;;4.23;3.93;;;28.40;60.30;;;;;;5047590;28;20442;-70
2023/07/09 10:02:58;;;;;;;4.23;3.93;;;28.40;60.00;;;;;;5042880;28;20491;-71
2023/07/09 10:05:33;;;;;;;3.83;3.53;;;28.40;59.80;;;;;;5045831;28;20491;-71
2023/07/09 10:08:06;;;;;;;6.97;3.70;;;28.40;60.00;;;;;;5049608;28;20456;-71
2023/07/09 10:10:35;;;;;;;4.97;4.10;;;28.40;60.20;;;;;;5044973;28;20462;-71
2023/07/09 10:13:11;;;;;;;6.47;4.43;;;28.50;60.40;;;;;;5039351;28;20492;-72
2023/07/09 10:15:46;;;;;;;7.80;3.90;;;28.50;60.60;;;;;;5047258;28;21035;-72
2023/07/09 10:18:35;;;;;;;5.23;4.30;;;28.50;60.70;;;;;;5040966;28;20449;-71
2023/07/09 10:21:09;;;;;;;5.07;3.97;;;28.50;60.70;;;;;;5043279;28;20460;-71
2023/07/09 10:23:43;;;;;;;6.40;4.20;;;28.60;60.80;;;;;;5024751;28;20470;-77
2023/07/09 10:26:15;;;;;;;7.60;4.03;;;28.60;60.80;;;;;;5034520;28;20496;-71
2023/07/09 10:29:23;;;;;;;8.00;3.97;;;28.60;60.80;;;;;;5040773;28;20957;-70
2023/07/09 10:32:00;;;;;;;5.80;4.33;;;28.60;60.60;;;;;;4975881;28;20472;-73
2023/07/09 10:34:35;;;;;;;9.03;4.30;;;28.60;60.80;;;;;;5047445;28;20476;-75
2023/07/09 10:37:26;;;;;;;6.40;4.53;;;28.60;61.00;;;;;;5045668;28;20462;-68
2023/07/09 10:39:58;;;;;;;5.70;4.40;;;28.60;60.70;;;;;;5040216;28;20630;-73
2023/07/09 10:42:30;;;;;;;5.37;3.90;;;28.60;60.50;;;;;;5044943;28;20934;-70
2023/07/09 10:45:03;;;;;;;7.03;4.77;;;28.60;60.10;;;;;;5041012;28;21554;-70
2023/07/09 10:47:36;;;;;;;9.43;3.83;;;28.60;60.30;;;;;;5042000;28;20462;-74
2023/07/09 10:50:10;;;;;;;8.30;5.40;;;28.60;59.70;;;;;;5042934;28;20961;-79
2023/07/09 10:52:42;;;;;;;6.40;4.07;;;28.60;60.00;;;;;;5035637;28;20466;-71
2023/07/09 10:55:17;;;;;;;5.00;4.07;;;28.60;60.10;;;;;;5044496;28;20459;-71
2023/07/09 10:57:55;;;;;;;9.73;4.53;;;28.60;59.80;;;;;;5025051;28;20536;-71
2023/07/09 11:00:34;;;;;;;5.30;3.90;;;28.70;59.70;;;;;;5037531;28;20460;-71
2023/07/09 11:03:10;;;;;;;7.03;4.50;;;28.70;59.80;;;;;;5040529;28;20511;-71
2023/07/09 11:05:40;;;;;;;8.13;4.73;;;28.70;59.50;;;;;;5044996;28;20467;-69
2023/07/09 11:08:13;;;;;;;5.07;4.00;;;28.70;59.80;;;;;;5049667;28;20542;-69
2023/07/09 11:10:49;;;;;;;6.30;4.00;;;28.70;59.80;;;;;;5041860;28;20579;-69
2023/07/09 11:13:25;;;;;;;5.03;4.00;;;28.70;59.90;;;;;;5039918;28;21004;-70
2023/07/09 11:16:17;;;;;;;5.17;4.67;;;28.70;59.50;;;;;;5044894;28;20512;-72
2023/07/09 11:18:56;;;;;;;6.73;3.90;;;28.70;59.50;;;;;;5051551;28;20516;-72
2023/07/09 11:21:24;;;;;;;4.60;4.20;;;28.60;59.50;;;;;;5047820;28;20465;-71
2023/07/09 11:23:55;;;;;;;4.73;4.27;;;28.70;59.30;;;;;;5043509;28;20465;-73
2023/07/09 11:26:25;;;;;;;8.33;4.23;;;28.70;59.30;;;;;;5045997;28;20455;-72
2023/07/09 11:28:56;;;;;;;5.20;3.67;;;28.70;59.00;;;;;;5041322;28;20517;-72
2023/07/09 11:31:35;;;;;;;6.80;4.00;;;28.70;59.00;;;;;;5032453;28;20567;-71
2023/07/09 11:34:11;;;;;;;6.03;4.40;;;28.70;59.00;;;;;;5042257;28;20474;-71
2023/07/09 11:36:49;;;;;;;5.43;4.77;;;28.70;59.10;;;;;;5044252;28;20503;-70
2023/07/09 11:39:28;;;;;;;4.90;4.53;;;28.70;59.00;;;;;;5039655;28;20465;-71
2023/07/09 11:41:57;;;;;;;5.33;4.80;;;28.80;59.30;;;;;;5042359;28;20816;-76
2023/07/09 11:44:28;;;;;;;6.33;4.90;;;28.80;58.90;;;;;;5035334;28;20542;-76
2023/07/09 11:47:14;;;;;;;6.73;5.30;;;28.80;59.10;;;;;;5042234;28;20461;-74
2023/07/09 11:49:51;;;;;;;5.33;4.80;;;28.90;59.00;;;;;;5039007;28;20474;-74
2023/07/09 11:52:25;;;;;;;5.10;4.60;;;28.90;59.00;;;;;;5053149;28;20453;-78
2023/07/09 11:54:54;;;;;;;9.30;4.77;;;28.90;58.90;;;;;;5043851;28;20801;-76
2023/07/09 11:57:22;;;;;;;4.70;4.27;;;29.00;58.80;;;;;;5054485;28;20504;-74
2023/07/09 11:59:50;;;;;;;5.13;4.70;;;29.10;58.40;;;;;;5043730;28;20456;-74
2023/07/09 12:02:21;;;;;;;14.20;4.67;;;29.10;58.20;;;;;;5052466;28;20458;-73
2023/07/09 12:04:53;;;;;;;6.40;4.00;;;29.20;58.30;;;;;;5052156;28;20949;-66
2023/07/09 12:07:24;;;;;;;3.87;3.53;;;29.20;57.90;;;;;;5051154;28;20470;-69
2023/07/09 12:09:53;;;;;;;6.37;3.90;;;29.30;57.70;;;;;;5058094;28;20465;-75
2023/07/09 12:12:25;;;;;;;5.33;4.50;;;29.50;57.60;;;;;;5055212;28;20450;-75
2023/07/09 12:14:53;;;;;;;7.50;4.20;;;29.60;56.80;;;;;;5055271;28;20478;-75
2023/07/09 12:17:28;;;;;;;5.23;3.50;;;29.80;57.00;;;;;;5054569;28;20454;-75
2023/07/09 12:19:58;;;;;;;5.70;3.73;;;29.90;56.70;;;;;;5052402;28;20486;-75
2023/07/09 12:22:26;;;;;;;6.43;3.90;;;30.10;56.60;;;;;;5059082;28;20507;-72
2023/07/09 12:24:55;;;;;;;3.57;3.23;;;30.20;56.10;;;;;;5049622;28;20884;-70
2023/07/09 12:27:26;;;;;;;5.80;3.83;;;30.40;55.50;;;;;;5051767;28;20454;-73
2023/07/09 12:29:56;;;;;;;4.23;3.90;;;30.50;55.30;;;;;;5052511;28;20454;-66
2023/07/09 12:32:26;;;;;;;4.67;4.20;;;30.70;55.00;;;;;;5051646;28;20524;-66
2023/07/09 12:34:56;;;;;;;5.70;3.80;;;30.80;54.80;;;;;;5043537;28;20509;-68
2023/07/09 12:37:31;;;;;;;4.73;4.03;;;30.90;54.90;;;;;;5049722;28;20501;-70
2023/07/09 12:40:01;;;;;;;4.30;4.00;;;31.00;54.20;;;;;;5056599;28;20499;-67
2023/07/09 12:42:33;;;;;;;4.23;3.87;;;30.90;53.60;;;;;;5044474;28;20513;-71
2023/07/09 12:45:02;;;;;;;4.53;3.70;;;30.90;53.70;;;;;;5061532;28;20805;-67
2023/07/09 12:47:30;;;;;;;4.47;4.07;;;30.80;53.90;;;;;;5051793;28;20836;-67
2023/07/09 12:50:03;;;;;;;5.40;3.67;;;30.70;54.10;;;;;;5062468;28;20529;-67
2023/07/09 12:52:33;;;;;;;3.23;2.93;;;30.70;54.10;;;;;;5065774;28;20995;-69
2023/07/09 12:55:03;;;;;;;4.17;3.77;;;30.60;54.00;;;;;;5064326;28;20478;-67
2023/07/09 12:57:33;;;;;;;4.00;3.57;;;30.60;54.00;;;;;;5053762;28;20449;-68
2023/07/09 13:00:02;;;;;;;4.70;3.90;;;30.50;54.40;;;;;;5059599;28;20935;-67
2023/07/09 13:02:30;;;;;;;4.20;3.80;;;30.40;54.00;;;;;;5061295;28;20439;-66
2023/07/09 13:05:04;;;;;;;4.87;4.13;;;30.40;54.20;;;;;;5050590;28;20467;-70
2023/07/09 13:07:37;;;;;;;4.30;3.90;;;30.30;54.20;;;;;;5035448;28;20459;-70